KSNA/SNA METAR and TAF weather

Enter ICAO airport designator
Station Type Date Time Source
KSNA METAR 2021/01/22 05:53 UTC NOAA

KSNA 220553Z 00000KT 10SM CLR 14/08 A3005 RMK AO2 SLP175 T01390083 10189 20139 53007


Station Type Date Time Source
KSNA Decoded METAR 2021/01/22 05:53 UTC NOAA

SANTA ANA WAYNE ORANGE CTY, CA, United States (KSNA) 33-41N 117-52W 15M
Jan 22, 2021 - 12:53 AM EST / 2021.01.22 0553 UTC
Wind: Calm:0
Visibility: 10 mile(s):0
Sky conditions: clear
Temperature: 57.0 F (13.9 C)
Dew Point: 46.9 F (8.3 C)
Relative Humidity: 68%
Pressure (altimeter): 30.05 in. Hg (1017 hPa)
Pressure tendency: 0.02 inches (0.7 hPa) higher than three hours ago
ob: KSNA 220553Z 00000KT 10SM CLR 14/08 A3005 RMK AO2 SLP175 T01390083 10189 20139 53007
cycle: 6

Station Type Date Time Source
KSNA TAF 2021/01/22 06:36 UTC NOAA

TAF KSNA 220533Z 2206/2306 VRB04KT P6SM FEW015
FM221200 13005KT P6SM BKN015
FM222000 24012KT P6SM BKN022

Example: see airport list